createdAt,value
2022-10-05T00:00:28.193Z,54.90
2022-10-05T00:02:58.139Z,54.90
2022-10-05T00:05:30.595Z,54.90
2022-10-05T00:08:03.716Z,54.90
2022-10-05T00:10:31.592Z,54.90
2022-10-05T00:12:59.440Z,54.70
2022-10-05T00:15:27.293Z,54.80
2022-10-05T00:17:55.188Z,54.80
2022-10-05T00:20:26.111Z,54.80
2022-10-05T00:22:58.626Z,54.80
2022-10-05T00:25:26.682Z,54.80
2022-10-05T00:27:57.551Z,54.70
2022-10-05T00:30:27.506Z,54.70
2022-10-05T00:32:59.438Z,54.60
2022-10-05T00:35:30.800Z,54.50
2022-10-05T00:37:58.621Z,54.50
2022-10-05T00:40:37.828Z,54.50
2022-10-05T00:43:20.865Z,54.70
2022-10-05T00:45:52.443Z,54.60
2022-10-05T00:48:29.137Z,54.50
2022-10-05T00:51:11.967Z,54.60
2022-10-05T00:53:49.201Z,54.50
2022-10-05T00:56:30.376Z,54.60
2022-10-05T00:59:12.013Z,54.70
2022-10-05T01:01:52.157Z,54.80
2022-10-05T01:04:27.410Z,54.80
2022-10-05T01:07:09.925Z,54.90
2022-10-05T01:09:45.544Z,55.00
2022-10-05T01:12:23.786Z,55.00
2022-10-05T01:14:56.939Z,55.00
2022-10-05T01:17:32.531Z,55.00
2022-10-05T01:20:26.290Z,55.10
2022-10-05T01:23:22.225Z,55.20
2022-10-05T01:26:00.595Z,55.20
2022-10-05T01:28:33.833Z,55.10
2022-10-05T01:31:09.249Z,55.10
2022-10-05T01:33:44.821Z,55.10
2022-10-05T01:36:22.599Z,55.10
2022-10-05T01:38:56.445Z,55.00
2022-10-05T01:41:42.125Z,55.00
2022-10-05T01:44:15.481Z,55.20
2022-10-05T01:46:47.123Z,55.10
2022-10-05T01:49:33.095Z,55.10
2022-10-05T01:52:13.714Z,55.10
2022-10-05T01:54:57.358Z,55.10
2022-10-05T01:57:37.878Z,55.20
2022-10-05T02:00:10.128Z,55.30
2022-10-05T02:02:43.285Z,55.20
2022-10-05T02:05:15.026Z,55.20
2022-10-05T02:07:48.391Z,55.10
2022-10-05T02:10:21.547Z,55.10
2022-10-05T02:12:55.318Z,55.30
2022-10-05T02:15:28.753Z,55.60
2022-10-05T02:18:03.033Z,55.00
2022-10-05T02:20:35.516Z,55.00
2022-10-05T02:23:08.589Z,55.00
2022-10-05T02:25:39.273Z,54.90
2022-10-05T02:28:10.843Z,54.90
2022-10-05T02:30:45.068Z,55.00
2022-10-05T02:33:22.745Z,55.00
2022-10-05T02:35:50.566Z,55.00
2022-10-05T02:38:29.904Z,55.00
2022-10-05T02:41:07.144Z,55.20
2022-10-05T02:43:47.016Z,55.20
2022-10-05T02:46:25.587Z,55.30
2022-10-05T02:49:06.347Z,55.50
2022-10-05T02:51:41.458Z,55.60
2022-10-05T02:54:23.479Z,55.80
2022-10-05T02:56:58.880Z,56.00
2022-10-05T02:59:33.822Z,56.10
2022-10-05T03:02:08.890Z,56.10
2022-10-05T03:04:41.722Z,56.20
2022-10-05T03:07:17.194Z,56.10
2022-10-05T03:09:55.715Z,56.30
2022-10-05T03:12:45.866Z,56.30
2022-10-05T03:15:28.298Z,56.50
2022-10-05T03:18:06.633Z,56.50
2022-10-05T03:20:43.756Z,56.50
2022-10-05T03:23:20.590Z,56.50
2022-10-05T03:26:00.235Z,56.50
2022-10-05T03:28:36.496Z,56.70
2022-10-05T03:31:07.363Z,56.60
2022-10-05T03:33:43.739Z,56.60
2022-10-05T03:36:23.427Z,56.60
2022-10-05T03:39:00.352Z,56.60
2022-10-05T03:41:35.489Z,57.00
2022-10-05T03:44:19.524Z,56.50
2022-10-05T03:46:59.362Z,56.40
2022-10-05T03:49:40.881Z,56.30
2022-10-05T03:52:14.924Z,56.20
2022-10-05T03:54:46.989Z,56.10
2022-10-05T03:57:19.062Z,56.10
2022-10-05T03:59:57.461Z,56.10
2022-10-05T04:02:30.360Z,56.10
2022-10-05T04:05:03.978Z,56.10
2022-10-05T04:07:46.705Z,56.20
2022-10-05T04:10:18.932Z,56.20
2022-10-05T04:12:51.656Z,56.20
2022-10-05T04:15:26.464Z,56.20
2022-10-05T04:17:59.279Z,56.30
2022-10-05T04:20:35.527Z,56.30
2022-10-05T04:23:14.080Z,56.50
2022-10-05T04:25:46.334Z,56.50
2022-10-05T04:28:21.926Z,56.50
2022-10-05T04:30:52.150Z,56.50
2022-10-05T04:33:21.054Z,56.60
2022-10-05T04:36:05.545Z,56.60
2022-10-05T04:38:47.845Z,56.70
2022-10-05T04:41:42.055Z,56.70
2022-10-05T04:44:24.283Z,56.70
2022-10-05T04:47:08.658Z,56.60
2022-10-05T04:49:56.487Z,56.60
2022-10-05T04:52:32.711Z,56.60
2022-10-05T04:55:10.101Z,56.70
2022-10-05T04:57:44.200Z,56.70
2022-10-05T05:00:23.525Z,56.70
2022-10-05T05:03:16.643Z,56.80
2022-10-05T05:06:15.997Z,56.80
2022-10-05T05:09:05.723Z,56.70
2022-10-05T05:11:42.046Z,56.70
2022-10-05T05:14:27.933Z,56.60
2022-10-05T05:17:13.013Z,56.70
2022-10-05T05:19:51.281Z,56.70
2022-10-05T05:22:28.785Z,56.60
2022-10-05T05:25:17.333Z,56.60
2022-10-05T05:27:53.106Z,57.10
2022-10-05T05:30:24.197Z,56.50
2022-10-05T05:33:17.809Z,56.50
2022-10-05T05:36:10.003Z,56.70
2022-10-05T05:38:42.580Z,56.70
2022-10-05T05:41:14.648Z,56.60
2022-10-05T05:43:54.032Z,56.60
2022-10-05T05:46:51.164Z,56.60
2022-10-05T05:49:19.690Z,56.60
2022-10-05T05:51:55.091Z,56.60
2022-10-05T05:54:30.068Z,56.60
2022-10-05T05:57:08.925Z,56.70
2022-10-05T05:59:50.230Z,56.70
2022-10-05T06:02:21.743Z,57.00
2022-10-05T06:04:55.609Z,56.80
2022-10-05T06:07:30.544Z,56.80
2022-10-05T06:10:05.350Z,57.00
2022-10-05T06:12:39.361Z,57.00
2022-10-05T06:15:29.551Z,57.20
2022-10-05T06:18:00.629Z,57.20
2022-10-05T06:20:31.906Z,57.20
2022-10-05T06:23:04.142Z,57.30
2022-10-05T06:25:41.960Z,57.30
2022-10-05T06:28:12.345Z,57.40
2022-10-05T06:30:57.133Z,57.50
2022-10-05T06:33:46.762Z,57.50
2022-10-05T06:36:24.672Z,57.60
2022-10-05T06:39:28.966Z,57.60
2022-10-05T06:42:13.546Z,57.70
2022-10-05T06:44:53.258Z,57.70
2022-10-05T06:47:31.469Z,57.90
2022-10-05T06:50:10.409Z,57.90
2022-10-05T06:52:49.859Z,58.00
2022-10-05T06:55:24.292Z,58.10
2022-10-05T06:58:03.733Z,58.10
2022-10-05T07:00:40.116Z,58.30
2022-10-05T07:03:19.113Z,58.50
2022-10-05T07:05:57.770Z,58.60
2022-10-05T07:08:36.802Z,58.90
2022-10-05T07:11:17.472Z,59.00
2022-10-05T07:14:15.377Z,59.30
2022-10-05T07:17:09.139Z,59.70
2022-10-05T07:19:47.108Z,60.20
2022-10-05T07:22:36.417Z,61.10
2022-10-05T07:25:10.525Z,61.90
2022-10-05T07:27:43.628Z,62.60
2022-10-05T07:30:14.884Z,63.30
2022-10-05T07:32:55.368Z,64.30
2022-10-05T07:35:49.658Z,65.20
2022-10-05T07:38:25.097Z,66.20
2022-10-05T07:40:56.974Z,67.20
2022-10-05T07:43:57.533Z,68.40
2022-10-05T07:46:30.312Z,67.70
2022-10-05T07:49:05.554Z,67.70
2022-10-05T07:51:37.875Z,67.60
2022-10-05T07:54:16.802Z,67.50
2022-10-05T07:56:46.534Z,67.00
2022-10-05T07:59:23.229Z,66.80
2022-10-05T08:01:56.346Z,66.30
2022-10-05T08:04:31.709Z,65.90
2022-10-05T08:07:03.384Z,65.30
2022-10-05T08:09:38.432Z,64.50
2022-10-05T08:12:21.750Z,63.60
2022-10-05T08:14:54.022Z,62.80
2022-10-05T08:17:34.725Z,62.50
2022-10-05T08:20:17.229Z,62.20
2022-10-05T08:22:50.012Z,61.80
2022-10-05T08:25:24.435Z,61.60
2022-10-05T08:27:57.979Z,61.20
2022-10-05T08:30:26.197Z,61.00
2022-10-05T08:33:03.233Z,61.10
2022-10-05T08:35:38.843Z,60.90
2022-10-05T08:38:14.290Z,61.10
2022-10-05T08:41:16.646Z,61.20
2022-10-05T08:44:06.089Z,61.00
2022-10-05T08:47:11.784Z,61.10
2022-10-05T08:49:57.824Z,61.30
2022-10-05T08:52:29.793Z,61.60
2022-10-05T08:55:34.234Z,62.10
2022-10-05T08:58:27.517Z,62.40
2022-10-05T09:01:02.619Z,63.40
2022-10-05T09:04:07.202Z,64.30
2022-10-05T09:07:17.267Z,64.90
2022-10-05T09:10:15.925Z,66.10
2022-10-05T09:13:29.685Z,67.80
2022-10-05T09:16:26.871Z,69.80
2022-10-05T09:19:18.464Z,71.00
2022-10-05T09:21:57.768Z,72.40
2022-10-05T09:24:34.455Z,73.30
2022-10-05T09:27:11.044Z,73.60
2022-10-05T09:30:05.105Z,72.80
2022-10-05T09:33:32.991Z,72.20
2022-10-05T09:36:31.781Z,72.90
2022-10-05T09:39:28.029Z,73.00
2022-10-05T09:42:29.329Z,71.90
2022-10-05T09:45:35.628Z,71.10
2022-10-05T09:48:40.214Z,70.90
2022-10-05T09:51:47.697Z,71.30
2022-10-05T09:54:44.845Z,71.50
2022-10-05T09:57:33.993Z,74.70
2022-10-05T10:00:26.352Z,74.10
2022-10-05T10:03:22.010Z,74.30
2022-10-05T10:06:22.643Z,74.00
2022-10-05T10:11:42.589Z,66.30
2022-10-05T10:14:49.497Z,72.30
2022-10-05T10:17:45.110Z,73.90
2022-10-05T10:20:37.397Z,72.40
2022-10-05T10:23:18.245Z,67.90
2022-10-05T10:28:45.877Z,64.60
2022-10-05T10:31:42.085Z,71.60
2022-10-05T10:34:34.858Z,63.30
2022-10-05T10:37:23.060Z,62.20
2022-10-05T10:40:06.493Z,61.20
2022-10-05T10:42:42.013Z,60.70
2022-10-05T10:45:45.394Z,60.90
2022-10-05T10:48:48.567Z,67.70
2022-10-05T10:51:37.108Z,69.20
2022-10-05T11:56:09.249Z,50.90
2022-10-05T11:58:41.493Z,50.70
2022-10-05T12:01:22.956Z,50.60
2022-10-05T12:04:00.638Z,50.10
2022-10-05T12:06:57.821Z,50.30
2022-10-05T12:10:01.775Z,50.10
2022-10-05T12:12:36.495Z,50.10
2022-10-05T12:15:15.999Z,50.50
2022-10-05T12:17:51.289Z,50.60
2022-10-05T12:20:23.872Z,51.00
2022-10-05T12:22:57.580Z,51.40
2022-10-05T12:25:31.612Z,51.60
2022-10-05T12:28:04.961Z,51.60
2022-10-05T12:30:52.747Z,51.60
2022-10-05T12:33:24.978Z,51.80
2022-10-05T12:35:59.065Z,52.10
2022-10-05T12:38:31.249Z,52.00
2022-10-05T12:41:08.736Z,52.20
2022-10-05T12:43:50.813Z,52.30
2022-10-05T12:46:30.457Z,52.70
2022-10-05T12:49:29.241Z,53.00
2022-10-05T12:51:59.078Z,53.00
2022-10-05T12:54:43.085Z,53.30
2022-10-05T12:57:20.843Z,53.20
2022-10-05T12:59:57.165Z,53.30
2022-10-05T13:02:35.404Z,53.30
2022-10-05T13:05:18.118Z,53.20
2022-10-05T13:08:00.854Z,53.30
2022-10-05T13:10:35.986Z,53.30
2022-10-05T13:13:18.092Z,53.50
2022-10-05T13:15:53.936Z,53.30
2022-10-05T13:18:30.743Z,53.40
2022-10-05T13:21:06.954Z,53.60
2022-10-05T13:23:44.071Z,53.50
2022-10-05T13:26:16.717Z,53.50
2022-10-05T13:28:53.185Z,53.70
2022-10-05T13:31:26.483Z,53.60
2022-10-05T13:34:05.707Z,53.60
2022-10-05T13:36:45.228Z,53.60
2022-10-05T13:39:30.306Z,53.60
2022-10-05T13:42:05.697Z,54.20
2022-10-05T13:44:42.333Z,53.80
2022-10-05T13:47:19.232Z,54.20
2022-10-05T13:49:55.115Z,54.00
2022-10-05T13:52:34.865Z,54.10
2022-10-05T13:55:11.927Z,54.20
2022-10-05T13:57:47.813Z,54.30
2022-10-05T14:00:22.733Z,54.20
2022-10-05T14:02:57.279Z,54.20
2022-10-05T14:05:26.800Z,54.20
2022-10-05T14:07:57.068Z,54.20
2022-10-05T14:10:37.419Z,54.20
2022-10-05T14:13:22.705Z,54.20
2022-10-05T14:16:04.323Z,54.20
2022-10-05T14:18:37.812Z,54.20
2022-10-05T14:21:19.312Z,54.20
2022-10-05T14:23:47.149Z,54.20
2022-10-05T14:26:20.369Z,54.30
2022-10-05T14:29:00.529Z,54.40
2022-10-05T14:31:35.453Z,54.30
2022-10-05T14:34:32.641Z,54.30
2022-10-05T14:37:04.705Z,54.30
2022-10-05T14:39:35.310Z,54.40
2022-10-05T14:42:18.732Z,54.60
2022-10-05T14:44:59.265Z,54.60
2022-10-05T14:47:30.141Z,54.60
2022-10-05T14:50:18.079Z,54.50
2022-10-05T14:53:00.356Z,54.60
2022-10-05T14:55:39.745Z,54.60
2022-10-05T14:58:24.051Z,54.70
2022-10-05T15:00:59.327Z,54.90
2022-10-05T15:03:41.626Z,55.00
2022-10-05T15:06:19.418Z,55.20
2022-10-05T15:09:02.457Z,55.00
2022-10-05T15:11:38.705Z,55.00
2022-10-05T15:14:15.860Z,55.00
2022-10-05T15:16:43.756Z,55.00
2022-10-05T15:19:20.823Z,55.00
2022-10-05T15:22:11.804Z,55.20
2022-10-05T15:24:45.370Z,55.40
2022-10-05T15:27:26.104Z,55.30
2022-10-05T15:30:03.593Z,55.50
2022-10-05T15:32:44.320Z,55.50
2022-10-05T15:35:36.757Z,56.20
2022-10-05T15:38:20.768Z,55.70
2022-10-05T15:40:59.505Z,55.70
2022-10-05T15:43:41.958Z,55.80
2022-10-05T15:46:14.800Z,55.80
2022-10-05T15:48:50.027Z,55.80
2022-10-05T15:51:27.834Z,55.80
2022-10-05T15:54:17.797Z,55.80
2022-10-05T15:56:53.767Z,55.50
2022-10-05T15:59:31.543Z,55.30
2022-10-05T16:02:01.741Z,55.60
2022-10-05T16:04:42.257Z,55.30
2022-10-05T16:07:35.654Z,55.40
2022-10-05T16:10:14.555Z,55.70
2022-10-05T16:12:49.710Z,55.80
2022-10-05T16:15:26.158Z,55.70
2022-10-05T16:18:12.949Z,55.60
2022-10-05T16:20:47.365Z,55.70
2022-10-05T16:23:26.935Z,55.50
2022-10-05T16:26:08.983Z,55.60
2022-10-05T16:28:47.355Z,55.50
2022-10-05T16:31:19.883Z,55.40
2022-10-05T16:33:59.450Z,55.20
2022-10-05T16:36:41.193Z,55.30
2022-10-05T16:39:16.247Z,55.10
2022-10-05T16:41:55.141Z,55.00
2022-10-05T16:44:36.662Z,55.10
2022-10-05T16:47:27.841Z,55.00
2022-10-05T16:50:04.036Z,54.70
2022-10-05T16:52:34.293Z,54.60
2022-10-05T16:55:06.031Z,54.50
2022-10-05T16:57:40.025Z,54.60
2022-10-05T17:00:20.132Z,54.80
2022-10-05T17:03:11.162Z,54.90
2022-10-05T17:05:55.558Z,55.00
2022-10-05T17:08:45.877Z,54.80
2022-10-05T17:11:24.412Z,54.90
2022-10-05T17:14:20.910Z,54.60
2022-10-05T17:17:01.634Z,54.80
2022-10-05T17:19:46.573Z,54.50
2022-10-05T17:22:24.617Z,54.60
2022-10-05T17:24:59.987Z,54.50
2022-10-05T17:27:35.155Z,54.40
2022-10-05T17:30:44.869Z,54.60
2022-10-05T17:33:22.960Z,54.80
2022-10-05T17:35:54.233Z,54.80
2022-10-05T17:38:24.001Z,54.40
2022-10-05T17:41:17.551Z,54.40
2022-10-05T17:44:19.436Z,54.80
2022-10-05T17:46:50.750Z,54.80
2022-10-05T17:49:42.738Z,54.40
2022-10-05T17:52:40.913Z,54.70
2022-10-05T17:55:38.525Z,54.50
2022-10-05T17:58:43.912Z,54.70
2022-10-05T18:01:17.653Z,54.70
2022-10-05T18:03:49.988Z,54.50
2022-10-05T18:06:33.269Z,54.50
2022-10-05T18:09:33.094Z,54.80
2022-10-05T18:12:37.030Z,55.00
2022-10-05T18:15:22.232Z,55.00
2022-10-05T18:17:52.924Z,55.00
2022-10-05T18:20:32.563Z,54.90
2022-10-05T18:23:35.620Z,55.10
2022-10-05T18:26:09.040Z,55.20
2022-10-05T18:28:51.665Z,55.00
2022-10-05T18:31:30.098Z,55.10
2022-10-05T18:34:20.808Z,55.10
2022-10-05T18:37:16.625Z,55.20
2022-10-05T18:40:05.627Z,55.20
2022-10-05T18:42:40.341Z,55.20
2022-10-05T18:45:21.338Z,55.00
2022-10-05T18:48:03.189Z,55.00
2022-10-05T18:50:40.042Z,54.90
2022-10-05T18:53:21.397Z,54.80
2022-10-05T18:55:55.829Z,54.70
2022-10-05T18:58:31.041Z,54.50
2022-10-05T19:01:22.215Z,54.40
2022-10-05T19:04:04.538Z,54.40
2022-10-05T19:06:38.788Z,54.30
2022-10-05T19:09:21.645Z,54.20
2022-10-05T19:11:56.367Z,54.30
2022-10-05T19:14:38.110Z,54.30
2022-10-05T19:17:25.627Z,54.30
2022-10-05T19:20:07.701Z,54.40
2022-10-05T19:22:47.686Z,54.30
2022-10-05T19:25:40.219Z,54.10
2022-10-05T19:28:17.359Z,54.10
2022-10-05T19:31:15.007Z,53.90
2022-10-05T19:34:01.987Z,54.00
2022-10-05T19:36:46.706Z,54.00
2022-10-05T19:39:21.138Z,54.00
2022-10-05T19:42:15.338Z,54.10
2022-10-05T19:44:54.195Z,54.30
2022-10-05T19:47:37.572Z,54.20
2022-10-05T19:50:26.105Z,54.30
2022-10-05T19:53:03.967Z,54.30
2022-10-05T19:55:37.112Z,54.20
2022-10-05T19:58:19.634Z,54.20
2022-10-05T20:00:55.581Z,54.40
2022-10-05T20:03:27.166Z,54.20
2022-10-05T20:05:56.749Z,54.20
2022-10-05T20:08:27.609Z,54.30
2022-10-05T20:11:10.281Z,54.40
2022-10-05T20:13:41.648Z,54.70
2022-10-05T20:16:40.090Z,54.60
2022-10-05T20:19:52.345Z,54.80
2022-10-05T20:22:46.304Z,54.80
2022-10-05T20:25:31.370Z,54.80
2022-10-05T20:27:59.393Z,54.80
2022-10-05T20:30:31.297Z,54.60
2022-10-05T20:33:01.429Z,54.70
2022-10-05T20:35:30.619Z,54.70
2022-10-05T20:38:00.304Z,54.70
2022-10-05T20:40:28.919Z,54.70
2022-10-05T20:42:57.387Z,54.70
2022-10-05T20:45:25.255Z,54.70
2022-10-05T20:47:55.015Z,54.70
2022-10-05T20:50:22.855Z,54.70
2022-10-05T20:52:50.795Z,54.70
2022-10-05T20:55:20.666Z,54.70
2022-10-05T20:57:48.502Z,54.70
2022-10-05T21:00:16.470Z,54.90
2022-10-05T21:02:44.277Z,54.70
2022-10-05T21:05:13.483Z,54.80
2022-10-05T21:07:41.376Z,54.80
2022-10-05T21:10:09.894Z,54.80
2022-10-05T21:12:37.933Z,54.70
2022-10-05T21:15:06.821Z,54.70
2022-10-05T21:17:36.245Z,55.20
2022-10-05T21:20:04.125Z,54.60
2022-10-05T21:22:35.431Z,54.60
2022-10-05T21:25:03.235Z,54.60
2022-10-05T21:27:31.021Z,54.50
2022-10-05T21:29:58.829Z,55.00
2022-10-05T21:32:26.645Z,54.50
2022-10-05T21:34:54.427Z,54.50
2022-10-05T21:37:22.251Z,54.50
2022-10-05T21:39:51.438Z,54.40
2022-10-05T21:42:19.250Z,54.40
2022-10-05T21:44:47.033Z,54.30
2022-10-05T21:47:15.053Z,54.30
2022-10-05T21:49:43.096Z,54.30
2022-10-05T21:52:11.030Z,54.40
2022-10-05T21:54:38.833Z,54.30
2022-10-05T21:57:08.084Z,54.40
2022-10-05T21:59:36.072Z,54.40
2022-10-05T22:02:04.347Z,54.40
2022-10-05T22:04:32.151Z,54.40
2022-10-05T22:07:00.235Z,54.40
2022-10-05T22:09:28.156Z,54.40
2022-10-05T22:11:57.264Z,54.50
2022-10-05T22:14:28.244Z,54.50
2022-10-05T22:16:56.036Z,54.50
2022-10-05T22:19:23.893Z,54.40
2022-10-05T22:21:51.794Z,54.40
2022-10-05T22:24:19.717Z,54.50
2022-10-05T22:26:51.324Z,54.40
2022-10-05T22:29:19.671Z,54.40
2022-10-05T22:31:49.441Z,54.50
2022-10-05T22:34:18.877Z,54.50
2022-10-05T22:36:47.333Z,54.40
2022-10-05T22:39:15.534Z,54.40
2022-10-05T22:41:43.604Z,54.80
2022-10-05T22:44:11.409Z,54.40
2022-10-05T22:46:39.626Z,54.40
2022-10-05T22:49:08.877Z,54.40
2022-10-05T22:51:36.853Z,54.40
2022-10-05T22:54:04.761Z,54.40
2022-10-05T22:56:32.876Z,54.40
2022-10-05T22:59:00.723Z,54.40
2022-10-05T23:01:28.579Z,54.30
2022-10-05T23:03:57.222Z,54.40
2022-10-05T23:06:27.299Z,54.30
2022-10-05T23:08:55.885Z,54.40
2022-10-05T23:11:25.952Z,54.30
2022-10-05T23:13:55.652Z,54.40
2022-10-05T23:16:24.947Z,54.30
2022-10-05T23:18:54.317Z,54.30
2022-10-05T23:21:23.786Z,54.40
2022-10-05T23:23:52.921Z,54.30
2022-10-05T23:26:23.120Z,54.20
2022-10-05T23:28:51.258Z,54.20
2022-10-05T23:31:20.836Z,54.20
2022-10-05T23:33:48.954Z,54.20
2022-10-05T23:36:18.907Z,54.20
2022-10-05T23:38:47.099Z,54.20
2022-10-05T23:41:17.167Z,54.20
2022-10-05T23:43:45.038Z,54.10
2022-10-05T23:46:14.028Z,54.10
2022-10-05T23:48:41.910Z,54.10
2022-10-05T23:51:11.112Z,54.00
2022-10-05T23:53:39.156Z,54.00
2022-10-05T23:56:07.487Z,54.00
2022-10-05T23:58:36.673Z,53.90
